createdAt,value
2022-08-27T00:01:11.936Z,20.00
2022-08-27T00:03:47.801Z,20.00
2022-08-27T00:06:24.875Z,20.00
2022-08-27T00:08:59.752Z,20.00
2022-08-27T00:11:35.287Z,20.00
2022-08-27T00:14:10.314Z,20.00
2022-08-27T00:16:45.265Z,20.00
2022-08-27T00:19:20.496Z,20.10
2022-08-27T00:21:55.859Z,20.00
2022-08-27T00:24:30.758Z,20.10
2022-08-27T00:27:05.758Z,20.10
2022-08-27T00:29:41.914Z,20.20
2022-08-27T00:32:17.614Z,20.20
2022-08-27T00:34:52.760Z,20.20
2022-08-27T00:37:27.780Z,20.10
2022-08-27T00:40:05.706Z,20.20
2022-08-27T00:42:42.400Z,20.20
2022-08-27T00:45:22.176Z,20.20
2022-08-27T00:47:59.791Z,20.20
2022-08-27T00:50:42.456Z,20.20
2022-08-27T00:53:24.192Z,20.10
2022-08-27T00:56:10.993Z,20.20
2022-08-27T00:58:51.640Z,20.10
2022-08-27T01:01:30.596Z,20.20
2022-08-27T01:04:05.982Z,20.10
2022-08-27T01:06:40.865Z,20.10
2022-08-27T01:09:17.779Z,20.20
2022-08-27T01:11:54.586Z,20.20
2022-08-27T01:14:30.036Z,20.20
2022-08-27T01:17:08.937Z,20.30
2022-08-27T01:20:00.532Z,20.30
2022-08-27T01:23:14.711Z,20.30
2022-08-27T01:25:50.662Z,20.30
2022-08-27T01:28:26.852Z,20.30
2022-08-27T01:31:12.512Z,20.20
2022-08-27T01:34:03.669Z,20.20
2022-08-27T01:36:38.613Z,20.20
2022-08-27T01:39:13.508Z,20.10
2022-08-27T01:41:49.194Z,20.20
2022-08-27T01:44:27.332Z,20.20
2022-08-27T01:47:02.350Z,20.30
2022-08-27T01:49:37.320Z,20.30
2022-08-27T01:52:14.810Z,20.30
2022-08-27T01:54:51.503Z,20.30
2022-08-27T01:57:27.085Z,20.40
2022-08-27T02:00:13.056Z,20.40
2022-08-27T02:02:48.691Z,20.30
2022-08-27T02:05:24.516Z,20.40
2022-08-27T02:08:00.064Z,20.40
2022-08-27T02:10:39.372Z,20.30
2022-08-27T02:13:14.844Z,20.30
2022-08-27T02:15:49.753Z,20.30
2022-08-27T02:18:24.726Z,20.30
2022-08-27T02:20:59.621Z,20.30
2022-08-27T02:23:34.624Z,20.30
2022-08-27T02:26:09.899Z,20.40
2022-08-27T02:28:44.823Z,20.40
2022-08-27T02:31:21.116Z,20.30
2022-08-27T02:33:56.130Z,20.30
2022-08-27T02:36:31.027Z,20.30
2022-08-27T02:39:06.887Z,20.30
2022-08-27T02:41:41.851Z,20.30
2022-08-27T02:44:17.003Z,20.40
2022-08-27T02:46:53.615Z,20.40
2022-08-27T02:49:29.968Z,20.40
2022-08-27T02:52:04.966Z,20.40
2022-08-27T02:54:40.989Z,20.40
2022-08-27T02:57:16.017Z,20.40
2022-08-27T02:59:52.551Z,20.40
2022-08-27T03:02:27.655Z,20.40
2022-08-27T03:05:02.965Z,20.40
2022-08-27T03:07:37.953Z,20.40
2022-08-27T03:10:16.512Z,20.30
2022-08-27T03:12:51.729Z,20.30
2022-08-27T03:15:26.919Z,20.30
2022-08-27T03:18:19.930Z,20.20
2022-08-27T03:20:56.675Z,20.20
2022-08-27T03:23:35.215Z,20.10
2022-08-27T03:26:12.019Z,20.00
2022-08-27T03:28:47.391Z,20.00
2022-08-27T03:31:29.283Z,20.10
2022-08-27T03:34:08.121Z,20.10
2022-08-27T03:36:43.718Z,20.10
2022-08-27T03:39:21.794Z,20.10
2022-08-27T03:41:56.802Z,20.10
2022-08-27T03:44:31.927Z,20.00
2022-08-27T03:47:07.089Z,20.00
2022-08-27T03:49:43.734Z,19.90
2022-08-27T03:52:19.308Z,19.90
2022-08-27T03:54:54.417Z,19.80
2022-08-27T03:57:29.611Z,19.80
2022-08-27T04:00:12.486Z,19.80
2022-08-27T04:02:47.571Z,19.80
2022-08-27T04:05:23.515Z,19.70
2022-08-27T04:07:58.754Z,19.80
2022-08-27T04:10:35.004Z,19.80
2022-08-27T04:13:10.285Z,19.80
2022-08-27T04:15:48.642Z,19.80
2022-08-27T04:18:23.939Z,19.80
2022-08-27T04:21:07.751Z,19.80
2022-08-27T04:23:43.865Z,19.80
2022-08-27T04:26:19.334Z,19.70
2022-08-27T04:28:55.363Z,19.70
2022-08-27T04:31:31.010Z,19.70
2022-08-27T04:34:07.711Z,19.70
2022-08-27T04:36:42.847Z,19.80
2022-08-27T04:39:17.960Z,19.70
2022-08-27T04:41:57.012Z,19.60
2022-08-27T04:44:33.332Z,19.60
2022-08-27T04:47:08.429Z,19.70
2022-08-27T04:49:43.923Z,19.80
2022-08-27T04:52:20.417Z,19.80
2022-08-27T04:54:56.987Z,19.80
2022-08-27T04:57:34.801Z,19.80
2022-08-27T05:00:11.866Z,19.90
2022-08-27T05:02:46.953Z,19.90
2022-08-27T05:05:23.502Z,19.90
2022-08-27T05:07:58.719Z,20.00
2022-08-27T05:10:44.564Z,20.00
2022-08-27T05:13:22.593Z,20.00
2022-08-27T05:16:01.649Z,19.90
2022-08-27T05:18:42.193Z,20.00
2022-08-27T05:21:29.005Z,20.00
2022-08-27T05:24:06.537Z,20.00
2022-08-27T05:26:42.438Z,20.10
2022-08-27T05:29:17.714Z,20.10
2022-08-27T05:31:52.827Z,20.10
2022-08-27T05:34:27.858Z,20.10
2022-08-27T05:37:03.591Z,20.10
2022-08-27T05:39:38.777Z,20.10
2022-08-27T05:42:13.975Z,20.10
2022-08-27T05:44:49.118Z,20.10
2022-08-27T05:47:24.814Z,20.10
2022-08-27T05:49:59.869Z,20.10
2022-08-27T05:52:36.425Z,20.20
2022-08-27T05:55:12.366Z,20.20
2022-08-27T05:57:47.422Z,20.30
2022-08-27T06:00:40.911Z,20.30
2022-08-27T06:03:15.910Z,20.40
2022-08-27T06:06:10.666Z,20.40
2022-08-27T06:08:45.767Z,20.40
2022-08-27T06:11:22.108Z,20.40
2022-08-27T06:13:57.758Z,20.50
2022-08-27T06:16:33.122Z,20.50
2022-08-27T06:19:12.091Z,20.60
2022-08-27T06:22:00.191Z,20.70
2022-08-27T06:24:43.462Z,20.70
2022-08-27T06:27:20.374Z,20.70
2022-08-27T06:29:55.446Z,20.70
2022-08-27T06:32:31.364Z,20.70
2022-08-27T06:35:06.835Z,20.80
2022-08-27T06:37:41.827Z,20.80
2022-08-27T06:40:16.973Z,20.70
2022-08-27T06:42:53.071Z,20.80
2022-08-27T06:45:28.076Z,20.80
2022-08-27T06:48:03.535Z,20.90
2022-08-27T06:50:40.974Z,21.00
2022-08-27T06:53:16.400Z,21.10
2022-08-27T06:55:52.133Z,21.10
2022-08-27T06:58:27.179Z,21.00
2022-08-27T07:01:18.588Z,21.00
2022-08-27T07:03:57.247Z,21.10
2022-08-27T07:06:33.661Z,21.10
2022-08-27T07:09:10.186Z,21.10
2022-08-27T07:11:45.143Z,21.20
2022-08-27T07:14:20.348Z,21.20
2022-08-27T07:16:55.397Z,21.30
2022-08-27T07:19:32.212Z,21.30
2022-08-27T07:22:07.462Z,21.30
2022-08-27T07:24:42.559Z,21.30
2022-08-27T07:27:18.001Z,21.30
2022-08-27T07:29:54.880Z,21.20
2022-08-27T07:32:31.254Z,21.10
2022-08-27T07:35:10.090Z,21.00
2022-08-27T07:37:45.179Z,21.00
2022-08-27T07:40:21.012Z,21.00
2022-08-27T07:43:14.436Z,21.00
2022-08-27T07:45:50.720Z,21.10
2022-08-27T07:48:26.476Z,21.10
2022-08-27T07:51:05.274Z,21.20
2022-08-27T07:53:40.538Z,21.20
2022-08-27T07:56:16.756Z,21.30
2022-08-27T07:58:51.935Z,21.30
2022-08-27T08:01:27.891Z,21.30
2022-08-27T08:04:03.438Z,21.40
2022-08-27T08:06:39.795Z,21.40
2022-08-27T08:09:15.246Z,21.50
2022-08-27T08:11:51.660Z,21.50
2022-08-27T08:14:26.834Z,21.50
2022-08-27T08:17:03.583Z,21.50
2022-08-27T08:19:57.362Z,21.30
2022-08-27T08:22:40.631Z,21.30
2022-08-27T08:25:16.286Z,21.30
2022-08-27T08:27:52.541Z,21.30
2022-08-27T08:30:28.419Z,21.30
2022-08-27T08:33:09.614Z,21.40
2022-08-27T08:35:44.621Z,21.40
2022-08-27T08:38:20.227Z,21.40
2022-08-27T08:40:56.288Z,21.50
2022-08-27T08:43:49.389Z,21.60
2022-08-27T08:46:39.814Z,21.60
2022-08-27T08:50:02.777Z,21.60
2022-08-27T08:52:50.896Z,21.50
2022-08-27T08:55:52.023Z,21.40
2022-08-27T08:59:02.238Z,21.40
2022-08-27T09:01:38.344Z,21.40
2022-08-27T09:04:13.642Z,21.30
2022-08-27T09:07:03.050Z,21.30
2022-08-27T09:09:56.723Z,21.30
2022-08-27T09:12:33.289Z,21.30
2022-08-27T09:15:20.140Z,21.30
2022-08-27T09:18:14.445Z,21.50
2022-08-27T09:21:09.070Z,21.60
2022-08-27T09:24:08.753Z,21.60
2022-08-27T09:26:45.008Z,21.70
2022-08-27T09:29:20.388Z,21.70
2022-08-27T09:32:08.855Z,21.70
2022-08-27T09:34:45.389Z,21.70
2022-08-27T09:37:33.892Z,21.80
2022-08-27T09:40:22.927Z,21.80
2022-08-27T09:43:15.759Z,21.90
2022-08-27T09:46:18.125Z,21.90
2022-08-27T09:48:53.248Z,21.90
2022-08-27T09:51:29.955Z,21.90
2022-08-27T09:54:08.066Z,21.80
2022-08-27T09:56:49.831Z,21.80
2022-08-27T09:59:37.889Z,21.80
2022-08-27T10:02:21.287Z,21.80
2022-08-27T10:05:02.786Z,21.80
2022-08-27T10:07:53.809Z,21.80
2022-08-27T10:10:47.334Z,21.80
2022-08-27T10:13:37.699Z,21.80
2022-08-27T10:16:21.761Z,22.00
2022-08-27T10:19:13.128Z,22.10
2022-08-27T10:22:32.725Z,22.20
2022-08-27T10:25:41.346Z,22.30
2022-08-27T10:28:34.424Z,22.50
2022-08-27T10:31:28.122Z,22.50
2022-08-27T10:34:43.486Z,22.60
2022-08-27T10:37:40.394Z,22.60
2022-08-27T10:40:56.055Z,22.70
2022-08-27T10:43:49.881Z,22.80
2022-08-27T10:46:40.215Z,22.80
2022-08-27T10:50:04.126Z,23.00
2022-08-27T10:52:52.935Z,23.10
2022-08-27T10:55:38.919Z,23.20
2022-08-27T10:58:49.958Z,23.30
2022-08-27T11:01:33.847Z,23.50
2022-08-27T11:04:39.467Z,23.60
2022-08-27T11:07:33.100Z,23.60
2022-08-27T11:10:24.148Z,23.60
2022-08-27T11:13:06.213Z,23.60
2022-08-27T11:15:46.598Z,23.60
2022-08-27T11:18:46.779Z,23.50
2022-08-27T11:21:37.632Z,23.50
2022-08-27T11:24:56.015Z,23.40
2022-08-27T11:27:33.527Z,23.30
2022-08-27T11:30:28.160Z,23.20
2022-08-27T11:33:18.568Z,23.10
2022-08-27T11:36:41.151Z,23.20
2022-08-27T11:39:51.971Z,23.30
2022-08-27T11:42:42.113Z,23.30
2022-08-27T11:45:30.809Z,23.40
2022-08-27T11:48:23.244Z,23.50
2022-08-27T11:51:11.557Z,23.60
2022-08-27T11:54:09.592Z,23.70
2022-08-27T11:56:45.207Z,23.80
2022-08-27T11:59:26.425Z,23.80
2022-08-27T12:02:29.449Z,23.90
2022-08-27T12:05:33.347Z,24.00
2022-08-27T12:08:24.000Z,24.00
2022-08-27T12:11:29.959Z,24.10
2022-08-27T12:14:33.049Z,24.00
2022-08-27T12:17:37.830Z,23.90
2022-08-27T12:20:35.699Z,23.90
2022-08-27T12:23:40.688Z,24.00
2022-08-27T12:26:26.308Z,24.00
2022-08-27T12:29:37.650Z,24.10
2022-08-27T12:32:39.265Z,24.20
2022-08-27T12:35:31.707Z,24.30
2022-08-27T12:38:32.686Z,24.40
2022-08-27T12:41:09.238Z,24.50
2022-08-27T12:43:44.434Z,24.60
2022-08-27T12:46:20.433Z,24.70
2022-08-27T12:49:10.019Z,24.70
2022-08-27T12:51:59.673Z,24.80
2022-08-27T12:55:01.987Z,24.90
2022-08-27T12:58:13.436Z,25.00
2022-08-27T13:01:21.494Z,24.90
2022-08-27T13:03:58.251Z,24.90
2022-08-27T13:06:45.349Z,24.90
2022-08-27T13:09:31.434Z,25.00
2022-08-27T13:12:15.909Z,25.10
2022-08-27T13:14:57.076Z,25.20
2022-08-27T13:17:41.305Z,25.20
2022-08-27T13:20:26.401Z,25.20
2022-08-27T13:23:01.538Z,25.30
2022-08-27T13:25:36.907Z,25.30
2022-08-27T13:28:15.426Z,25.50
2022-08-27T13:30:51.959Z,25.60
2022-08-27T13:33:33.037Z,25.60
2022-08-27T13:36:09.694Z,25.80
2022-08-27T13:38:50.068Z,25.80
2022-08-27T13:41:36.550Z,25.80
2022-08-27T13:44:48.280Z,25.80
2022-08-27T13:47:26.673Z,25.90
2022-08-27T13:50:07.781Z,25.90
2022-08-27T13:53:01.842Z,25.90
2022-08-27T13:55:40.146Z,25.80
2022-08-27T13:58:24.770Z,25.70
2022-08-27T14:01:16.573Z,25.50
2022-08-27T14:04:01.855Z,25.40
2022-08-27T14:06:43.513Z,25.40
2022-08-27T14:09:25.356Z,25.40
2022-08-27T14:12:04.833Z,25.30
2022-08-27T14:14:41.871Z,25.30
2022-08-27T14:17:29.457Z,25.30
2022-08-27T14:20:07.052Z,25.40
2022-08-27T14:22:45.635Z,25.50
2022-08-27T14:25:22.476Z,25.60
2022-08-27T14:27:57.746Z,25.80
2022-08-27T14:30:32.817Z,25.90
2022-08-27T14:33:07.895Z,26.00
2022-08-27T14:35:43.655Z,26.10
2022-08-27T14:38:23.923Z,26.10
2022-08-27T14:40:59.410Z,26.10
2022-08-27T14:43:36.127Z,26.20
2022-08-27T14:46:23.010Z,26.20
2022-08-27T14:49:01.863Z,26.10
2022-08-27T14:51:37.878Z,26.10
2022-08-27T14:54:13.031Z,26.20
2022-08-27T14:56:48.369Z,26.20
2022-08-27T14:59:23.358Z,26.30
2022-08-27T15:02:00.160Z,26.50
2022-08-27T15:04:35.615Z,26.70
2022-08-27T15:07:11.699Z,26.80
2022-08-27T15:09:48.646Z,26.90
2022-08-27T15:12:26.389Z,27.10
2022-08-27T15:15:01.635Z,27.20
2022-08-27T15:17:37.075Z,27.30
2022-08-27T15:20:19.953Z,27.50
2022-08-27T15:22:55.752Z,27.60
2022-08-27T15:25:30.966Z,27.60
2022-08-27T15:28:06.948Z,27.60
2022-08-27T15:30:42.247Z,27.70
2022-08-27T15:33:17.530Z,27.70
2022-08-27T15:35:52.525Z,27.60
2022-08-27T15:38:27.795Z,27.70
2022-08-27T15:41:03.424Z,27.70
2022-08-27T15:43:39.372Z,27.60
2022-08-27T15:46:15.335Z,27.60
2022-08-27T15:48:50.470Z,27.50
2022-08-27T15:51:31.424Z,27.40
2022-08-27T15:54:06.582Z,27.30
2022-08-27T15:56:41.710Z,27.30
2022-08-27T15:59:17.483Z,27.20
2022-08-27T16:01:54.824Z,27.00
2022-08-27T16:04:30.088Z,26.90
2022-08-27T16:07:05.325Z,26.90
2022-08-27T16:09:40.457Z,26.90
2022-08-27T16:12:26.940Z,26.80
2022-08-27T16:15:04.178Z,26.70
2022-08-27T16:17:39.656Z,26.50
2022-08-27T16:20:16.678Z,26.40
2022-08-27T16:22:53.442Z,26.20
2022-08-27T16:25:28.960Z,25.90
2022-08-27T16:28:04.380Z,25.80
2022-08-27T16:30:40.899Z,25.80
2022-08-27T16:33:16.444Z,25.90
2022-08-27T16:35:52.510Z,25.90
2022-08-27T16:38:28.248Z,25.90
2022-08-27T16:41:04.159Z,26.00
2022-08-27T16:43:39.883Z,26.10
2022-08-27T16:46:15.040Z,26.20
2022-08-27T16:49:08.456Z,26.00
2022-08-27T16:51:43.686Z,25.80
2022-08-27T16:54:18.732Z,25.60
2022-08-27T16:56:53.783Z,25.30
2022-08-27T16:59:28.795Z,25.00
2022-08-27T17:02:04.334Z,24.80
2022-08-27T17:04:42.070Z,24.70
2022-08-27T17:07:19.673Z,24.50
2022-08-27T17:10:05.615Z,24.40
2022-08-27T17:12:41.530Z,24.30
2022-08-27T17:15:17.107Z,24.10
2022-08-27T17:17:52.021Z,23.90
2022-08-27T17:20:27.082Z,23.80
2022-08-27T17:23:07.569Z,23.80
2022-08-27T17:25:42.601Z,23.60
2022-08-27T17:28:17.632Z,23.50
2022-08-27T17:30:52.852Z,23.40
2022-08-27T17:33:36.386Z,23.20
2022-08-27T17:36:12.466Z,23.20
2022-08-27T17:38:48.912Z,23.10
2022-08-27T17:41:31.714Z,23.10
2022-08-27T17:44:35.910Z,23.10
2022-08-27T17:47:11.304Z,23.00
2022-08-27T17:49:46.242Z,23.00
2022-08-27T17:52:21.429Z,22.90
2022-08-27T17:54:56.724Z,22.90
2022-08-27T17:57:40.791Z,22.90
2022-08-27T18:00:16.515Z,22.80
2022-08-27T18:02:53.560Z,22.80
2022-08-27T18:05:28.581Z,22.80
2022-08-27T18:08:03.863Z,22.70
2022-08-27T18:10:41.991Z,22.60
2022-08-27T18:13:19.132Z,22.60
2022-08-27T18:15:54.442Z,22.50
2022-08-27T18:18:29.384Z,22.40
2022-08-27T18:21:04.449Z,22.40
2022-08-27T18:23:42.734Z,22.30
2022-08-27T18:26:20.880Z,22.20
2022-08-27T18:28:57.625Z,22.20
2022-08-27T18:31:32.954Z,22.10
2022-08-27T18:34:07.877Z,22.10
2022-08-27T18:36:42.776Z,22.00
2022-08-27T18:39:17.679Z,22.00
2022-08-27T18:41:52.695Z,22.00
2022-08-27T18:44:27.699Z,22.00
2022-08-27T18:47:03.629Z,22.00
2022-08-27T18:49:38.680Z,21.90
2022-08-27T18:52:13.710Z,21.90
2022-08-27T18:54:48.864Z,21.90
2022-08-27T18:57:23.922Z,21.80
2022-08-27T18:59:58.883Z,21.80
2022-08-27T19:02:35.994Z,21.80
2022-08-27T19:05:12.716Z,21.80
2022-08-27T19:07:47.615Z,21.70
2022-08-27T19:10:25.145Z,21.70
2022-08-27T19:13:00.034Z,21.60
2022-08-27T19:15:35.023Z,21.60
2022-08-27T19:18:10.361Z,21.50
2022-08-27T19:20:45.450Z,21.50
2022-08-27T19:23:22.461Z,21.40
2022-08-27T19:25:59.052Z,21.30
2022-08-27T19:28:44.996Z,21.30
2022-08-27T19:31:20.161Z,21.20
2022-08-27T19:33:55.622Z,21.10
2022-08-27T19:36:33.235Z,21.10
2022-08-27T19:39:12.777Z,21.10
2022-08-27T19:41:47.664Z,21.10
2022-08-27T19:44:22.643Z,21.10
2022-08-27T19:46:59.227Z,21.00
2022-08-27T19:49:34.333Z,21.00
2022-08-27T19:52:09.227Z,21.00
2022-08-27T19:54:57.219Z,21.00
2022-08-27T19:57:39.657Z,21.00
2022-08-27T20:00:19.068Z,21.00
2022-08-27T20:02:53.999Z,20.90
2022-08-27T20:05:28.967Z,20.90
2022-08-27T20:08:05.316Z,20.90
2022-08-27T20:10:40.695Z,20.90
2022-08-27T20:13:15.913Z,20.90
2022-08-27T20:15:51.159Z,20.90
2022-08-27T20:18:26.863Z,20.90
2022-08-27T20:21:05.902Z,20.90
2022-08-27T20:23:41.265Z,20.90
2022-08-27T20:26:16.279Z,20.90
2022-08-27T20:28:52.799Z,20.90
2022-08-27T20:31:28.999Z,20.90
2022-08-27T20:34:04.841Z,20.90
2022-08-27T20:36:40.057Z,20.90
2022-08-27T20:39:15.059Z,20.90
2022-08-27T20:41:51.670Z,20.90
2022-08-27T20:44:26.780Z,20.90
2022-08-27T20:47:02.926Z,20.90
2022-08-27T20:49:39.905Z,20.80
2022-08-27T20:52:15.154Z,20.80
2022-08-27T20:54:50.168Z,20.80
2022-08-27T20:57:25.120Z,20.80
2022-08-27T21:00:18.451Z,20.70
2022-08-27T21:02:55.292Z,20.70
2022-08-27T21:05:34.952Z,20.70
2022-08-27T21:08:11.216Z,20.60
2022-08-27T21:10:55.129Z,20.60
2022-08-27T21:13:30.230Z,20.60
2022-08-27T21:16:06.626Z,20.60
2022-08-27T21:18:41.665Z,20.60
2022-08-27T21:21:16.705Z,20.60
2022-08-27T21:23:51.785Z,20.50
2022-08-27T21:26:26.860Z,20.50
2022-08-27T21:29:02.248Z,20.40
2022-08-27T21:31:37.389Z,20.40
2022-08-27T21:34:12.366Z,20.50
2022-08-27T21:36:47.309Z,20.40
2022-08-27T21:39:22.231Z,20.40
2022-08-27T21:41:57.178Z,20.40
2022-08-27T21:44:32.221Z,20.40
2022-08-27T21:47:07.934Z,20.50
2022-08-27T21:49:42.967Z,20.50
2022-08-27T21:52:18.325Z,20.50
2022-08-27T21:54:53.334Z,20.50
2022-08-27T21:57:28.477Z,20.50
2022-08-27T22:00:28.234Z,20.50
2022-08-27T22:03:03.842Z,20.50
2022-08-27T22:05:45.193Z,20.50
2022-08-27T22:08:22.855Z,20.40
2022-08-27T22:10:58.476Z,20.40
2022-08-27T22:13:33.793Z,20.50
2022-08-27T22:16:08.817Z,20.50
2022-08-27T22:18:43.830Z,20.50
2022-08-27T22:21:18.727Z,20.50
2022-08-27T22:23:53.889Z,20.50
2022-08-27T22:26:28.879Z,20.50
2022-08-27T22:29:05.032Z,20.50
2022-08-27T22:31:40.942Z,20.60
2022-08-27T22:34:16.021Z,20.60
2022-08-27T22:36:51.080Z,20.60
2022-08-27T22:39:26.037Z,20.60
2022-08-27T22:42:01.012Z,20.50
2022-08-27T22:44:38.377Z,20.50
2022-08-27T22:47:14.915Z,20.50
2022-08-27T22:49:52.910Z,20.50
2022-08-27T22:52:28.443Z,20.50
2022-08-27T22:55:04.946Z,20.50
2022-08-27T22:57:40.790Z,20.50
2022-08-27T23:00:42.394Z,20.50
2022-08-27T23:03:17.457Z,20.50
2022-08-27T23:05:52.745Z,20.50
2022-08-27T23:08:27.778Z,20.50
2022-08-27T23:11:03.329Z,20.50
2022-08-27T23:13:40.407Z,20.50
2022-08-27T23:16:15.796Z,20.50
2022-08-27T23:18:50.917Z,20.40
2022-08-27T23:21:25.901Z,20.40
2022-08-27T23:24:02.638Z,20.40
2022-08-27T23:26:57.050Z,20.40
2022-08-27T23:29:32.080Z,20.40
2022-08-27T23:32:07.097Z,20.30
2022-08-27T23:34:41.998Z,20.30
2022-08-27T23:37:16.982Z,20.30
2022-08-27T23:39:52.042Z,20.30
2022-08-27T23:42:27.363Z,20.30
2022-08-27T23:45:06.567Z,20.30
2022-08-27T23:47:41.532Z,20.30
2022-08-27T23:50:16.822Z,20.30
2022-08-27T23:52:51.756Z,20.30
2022-08-27T23:55:29.435Z,20.30
2022-08-27T23:58:04.629Z,20.30
